Time;durP1;ratioP1;P1;durP2;ratioP2;P2;SDS_P1;SDS_P2;PMS_P1;PMS_P2;Temp;Humidity;BMP_temperature;BMP_pressure;BME280_temperature;BME280_humidity;BME280_pressure;Samples;Min_cycle;Max_cycle;Signal;HPM_P1;HPM_P2
2023/09/07 00:01:30;;;;;;;12.00;9.65;;;;;;;;;;5025214;28;20036;-51
2023/09/07 00:03:56;;;;;;;13.50;9.88;;;;;;;;;;5025219;28;20180;-52
2023/09/07 00:06:22;;;;;;;10.13;9.00;;;;;;;;;;5023851;28;20037;-51
2023/09/07 00:08:48;;;;;;;13.38;9.18;;;;;;;;;;5025726;28;20068;-51
2023/09/07 00:11:14;;;;;;;12.63;9.93;;;20.00;99.90;;;;;;4992168;28;20133;-51
2023/09/07 00:13:39;;;;;;;11.40;8.98;;;19.90;99.90;;;;;;4993751;28;20125;-51
2023/09/07 00:16:06;;;;;;;12.02;8.93;;;19.90;99.90;;;;;;4993382;28;20530;-51
2023/09/07 00:18:32;;;;;;;10.73;9.57;;;19.80;99.90;;;;;;4993593;28;20022;-52
2023/09/07 00:21:01;;;;;;;11.88;8.80;;;19.90;99.90;;;;;;4993460;28;20605;-52
2023/09/07 00:23:27;;;;;;;11.25;9.32;;;19.90;99.90;;;;;;4993561;28;20422;-51
2023/09/07 00:25:53;;;;;;;10.50;9.40;;;19.90;99.90;;;;;;4993248;28;20181;-51
2023/09/07 00:28:18;;;;;;;12.15;9.00;;;20.00;99.90;;;;;;4993164;28;20030;-51
2023/09/07 00:30:44;;;;;;;13.20;8.43;;;20.00;99.90;;;;;;4993274;28;20042;-51
2023/09/07 00:33:10;;;;;;;10.40;9.30;;;20.00;99.90;;;;;;4993253;28;20026;-52
2023/09/07 00:35:36;;;;;;;13.48;9.15;;;19.90;99.90;;;;;;4993240;28;20033;-51
2023/09/07 00:38:02;;;;;;;13.15;9.35;;;20.00;99.90;;;;;;4993128;28;20023;-51
2023/09/07 00:40:29;;;;;;;12.40;8.38;;;19.90;99.90;;;;;;4976725;28;20046;-51
2023/09/07 00:42:54;;;;;;;18.17;9.82;;;20.00;99.90;;;;;;5018474;28;20033;-51
2023/09/07 00:45:25;;;;;;;10.70;8.65;;;19.90;99.90;;;;;;5025797;28;20072;-53
2023/09/07 00:47:51;;;;;;;10.52;8.63;;;19.90;99.90;;;;;;5025376;28;20032;-51
2023/09/07 00:50:16;;;;;;;12.90;9.15;;;19.90;99.90;;;;;;5024198;28;20021;-51
2023/09/07 00:52:43;;;;;;;10.68;9.48;;;19.90;99.90;;;;;;5024618;28;20105;-51
2023/09/07 00:55:09;;;;;;;10.52;8.85;;;19.90;99.90;;;;;;5024598;28;20030;-51
2023/09/07 00:57:36;;;;;;;13.60;9.52;;;19.90;99.90;;;;;;5024283;28;20422;-51
2023/09/07 01:00:07;;;;;;;10.63;9.48;;;19.90;99.90;;;;;;4989443;28;20037;-51
2023/09/07 01:02:33;;;;;;;14.20;10.15;;;19.90;99.90;;;;;;5023854;28;20113;-51
2023/09/07 01:04:59;;;;;;;14.32;9.48;;;19.90;99.90;;;;;;5024373;28;20026;-51
2023/09/07 01:07:32;;;;;;;10.95;9.68;;;19.90;99.90;;;;;;5024602;28;20018;-51
2023/09/07 01:10:00;;;;;;;15.60;9.55;;;19.90;99.90;;;;;;5024674;28;20029;-51
2023/09/07 01:12:27;;;;;;;13.07;9.90;;;19.80;99.90;;;;;;5024615;28;20022;-51
2023/09/07 01:14:53;;;;;;;13.57;10.18;;;19.80;99.90;;;;;;5023567;28;20029;-51
2023/09/07 01:17:20;;;;;;;14.07;10.27;;;;;;;;;;5023629;28;20033;-51
2023/09/07 01:19:46;;;;;;;13.63;10.05;;;;;;;;;;5023798;28;20465;-51
2023/09/07 01:22:12;;;;;;;13.18;10.77;;;;;;;;;;5023948;28;20021;-51
2023/09/07 01:24:39;;;;;;;11.50;9.80;;;19.20;99.90;;;;;;5024099;28;20095;-51
2023/09/07 01:27:06;;;;;;;13.45;10.93;;;19.20;99.90;;;;;;4997125;28;20049;-51
2023/09/07 01:29:33;;;;;;;12.75;10.77;;;19.10;99.90;;;;;;5006302;28;20041;-52
2023/09/07 01:31:59;;;;;;;14.40;11.40;;;18.80;99.90;;;;;;5005353;28;20384;-52
2023/09/07 01:34:25;;;;;;;15.35;11.75;;;18.70;99.90;;;;;;5024024;28;20022;-51
2023/09/07 01:36:51;;;;;;;14.15;11.43;;;;;;;;;;4989469;28;20029;-51
2023/09/07 01:39:17;;;;;;;15.65;10.75;;;;;;;;;;5023933;28;20370;-51
2023/09/07 01:41:43;;;;;;;13.13;11.23;;;;;;;;;;5023808;28;20037;-51
2023/09/07 01:44:09;;;;;;;17.92;11.55;;;;;;;;;;5023191;28;20092;-51
2023/09/07 01:46:36;;;;;;;12.50;10.80;;;;;;;;;;5023291;28;20018;-51
2023/09/07 01:49:02;;;;;;;17.48;11.38;;;;;;;;;;5023581;28;20025;-51
2023/09/07 01:51:28;;;;;;;14.88;10.98;;;;;;;;;;5022579;28;20098;-52
2023/09/07 01:53:55;;;;;;;13.20;11.05;;;;;;;;;;5022501;28;20596;-51
2023/09/07 01:56:21;;;;;;;12.95;10.93;;;;;;;;;;5020059;28;20085;-51
2023/09/07 01:58:47;;;;;;;13.77;10.40;;;;;;;;;;5022131;28;20037;-52
2023/09/07 02:01:29;;;;;;;11.73;10.13;;;;;;;;;;5023123;28;20024;-51
2023/09/07 02:03:55;;;;;;;13.73;10.60;;;;;;;;;;5022817;28;20026;-51
2023/09/07 02:06:21;;;;;;;11.82;9.57;;;;;;;;;;5023526;28;20031;-51
2023/09/07 02:08:48;;;;;;;16.73;10.27;;;;;;;;;;5023267;28;20038;-51
2023/09/07 02:11:14;;;;;;;11.32;9.88;;;;;;;;;;5023423;28;20477;-51
2023/09/07 02:13:44;;;;;;;11.38;9.93;;;;;;;;;;5023101;28;20543;-51
2023/09/07 02:16:10;;;;;;;15.23;10.65;;;;;;;;;;5022634;28;20502;-51
2023/09/07 02:18:43;;;;;;;12.05;9.52;;;;;;;;;;5022410;28;20022;-51
2023/09/07 02:21:09;;;;;;;11.77;10.57;;;;;;;;;;5022585;28;20394;-51
2023/09/07 02:23:39;;;;;;;12.13;9.90;;;;;;;;;;5022544;28;20096;-52
2023/09/07 02:26:05;;;;;;;17.25;11.60;;;;;;;;;;5022022;28;20489;-51
2023/09/07 02:28:31;;;;;;;15.00;10.90;;;;;;;;;;5022524;28;20025;-51
2023/09/07 02:31:04;;;;;;;16.38;10.40;;;;;;;;;;5022865;28;20040;-51
2023/09/07 02:33:32;;;;;;;15.95;11.70;;;;;;;;;;5019038;28;20056;-51
2023/09/07 02:35:58;;;;;;;17.70;11.60;;;;;;;;;;5022472;28;20744;-51
2023/09/07 02:38:24;;;;;;;16.02;11.48;;;18.50;99.90;;;;;;5023033;28;20079;-51
2023/09/07 02:40:50;;;;;;;14.15;12.27;;;18.50;99.90;;;;;;5023114;28;20025;-51
2023/09/07 02:43:16;;;;;;;12.48;11.27;;;18.60;99.90;;;;;;5022972;28;20026;-51
2023/09/07 02:45:42;;;;;;;13.52;10.45;;;18.60;99.90;;;;;;5022396;28;20029;-51
2023/09/07 02:48:08;;;;;;;14.93;12.07;;;18.50;99.90;;;;;;5022370;28;20429;-51
2023/09/07 02:50:34;;;;;;;13.18;11.20;;;18.50;99.90;;;;;;5022207;28;20104;-51
2023/09/07 02:53:01;;;;;;;15.00;11.45;;;18.50;99.90;;;;;;5022395;28;20026;-52
2023/09/07 02:55:28;;;;;;;12.70;10.65;;;18.50;99.90;;;;;;5021996;28;20448;-51
2023/09/07 02:57:55;;;;;;;13.30;11.18;;;18.40;99.90;;;;;;5022786;28;20025;-51
2023/09/07 03:00:21;;;;;;;16.08;10.88;;;18.40;99.90;;;;;;5022700;28;20498;-51
2023/09/07 03:02:48;;;;;;;13.23;10.80;;;18.40;99.90;;;;;;5022568;28;20116;-50
2023/09/07 03:05:14;;;;;;;11.82;10.18;;;18.40;99.90;;;;;;5022870;28;20444;-50
2023/09/07 03:07:40;;;;;;;12.00;10.63;;;18.40;99.90;;;;;;5022201;28;20052;-50
2023/09/07 03:10:06;;;;;;;11.07;9.70;;;18.40;99.90;;;;;;5011820;28;20490;-53
2023/09/07 03:12:32;;;;;;;16.75;11.35;;;18.40;99.90;;;;;;5007445;28;20049;-50
2023/09/07 03:14:58;;;;;;;13.20;11.10;;;18.40;99.90;;;;;;5022272;28;20065;-50
2023/09/07 03:17:23;;;;;;;14.40;10.48;;;18.40;99.90;;;;;;4987043;28;20041;-50
2023/09/07 03:19:49;;;;;;;11.90;10.70;;;18.30;99.90;;;;;;5028699;28;20046;-51
2023/09/07 03:22:15;;;;;;;13.82;11.43;;;18.30;99.90;;;;;;5020401;28;20037;-51
2023/09/07 03:24:41;;;;;;;21.25;12.18;;;18.30;99.90;;;;;;5021983;28;21252;-50
2023/09/07 03:27:07;;;;;;;13.23;10.75;;;18.30;99.90;;;;;;5003412;28;20057;-50
2023/09/07 03:29:35;;;;;;;14.52;11.27;;;18.30;99.90;;;;;;5003885;28;20056;-50
2023/09/07 03:32:02;;;;;;;14.80;10.63;;;18.40;99.90;;;;;;5022626;28;20107;-50
2023/09/07 03:34:28;;;;;;;19.65;11.85;;;18.40;99.90;;;;;;5021985;28;20037;-50
2023/09/07 03:36:53;;;;;;;13.15;11.68;;;18.40;99.90;;;;;;5021401;28;20060;-50
2023/09/07 03:39:22;;;;;;;14.75;12.82;;;18.30;99.90;;;;;;5021673;28;20112;-50
2023/09/07 03:41:48;;;;;;;13.27;11.93;;;18.40;99.90;;;;;;5021236;28;20505;-50
2023/09/07 03:44:13;;;;;;;17.17;12.32;;;18.40;99.90;;;;;;5021476;28;20125;-50
2023/09/07 03:46:39;;;;;;;14.63;11.18;;;18.50;99.90;;;;;;5020769;28;20378;-50
2023/09/07 03:49:05;;;;;;;17.75;11.65;;;18.50;99.90;;;;;;5022301;28;20041;-50
2023/09/07 03:51:31;;;;;;;20.20;12.02;;;18.40;99.90;;;;;;5003515;28;20040;-50
2023/09/07 03:53:57;;;;;;;12.90;11.60;;;18.40;99.90;;;;;;5021835;28;20112;-51
2023/09/07 03:56:23;;;;;;;13.88;11.82;;;18.40;99.90;;;;;;5021323;28;20130;-50
2023/09/07 03:58:49;;;;;;;14.70;11.20;;;18.40;99.90;;;;;;5017275;28;20029;-50
2023/09/07 04:01:14;;;;;;;16.30;12.30;;;18.30;99.90;;;;;;5002738;28;20125;-50
2023/09/07 04:03:41;;;;;;;15.40;11.90;;;18.30;99.90;;;;;;5020668;28;20108;-50
2023/09/07 04:06:07;;;;;;;24.77;12.80;;;18.40;99.90;;;;;;5021702;28;20112;-50
2023/09/07 04:08:33;;;;;;;14.57;12.20;;;18.40;99.90;;;;;;5020968;28;20022;-50
2023/09/07 04:11:04;;;;;;;13.60;12.07;;;18.40;99.90;;;;;;5024469;28;20084;-50
2023/09/07 04:13:29;;;;;;;15.63;12.02;;;18.40;99.90;;;;;;5019998;28;20073;-50
2023/09/07 04:15:55;;;;;;;15.68;12.18;;;18.50;99.90;;;;;;5022866;28;20064;-50
2023/09/07 04:18:21;;;;;;;15.40;12.73;;;18.50;99.90;;;;;;5021011;28;20060;-51
2023/09/07 04:20:47;;;;;;;16.65;12.45;;;18.60;99.90;;;;;;5021156;28;20041;-52
2023/09/07 04:23:12;;;;;;;17.23;13.27;;;18.60;99.90;;;;;;5019408;28;20029;-51
2023/09/07 04:25:39;;;;;;;18.20;12.02;;;18.60;99.90;;;;;;5022338;28;20039;-51
2023/09/07 04:28:05;;;;;;;17.15;12.27;;;17.60;99.90;;;;;;5025402;28;20489;-51
2023/09/07 04:30:32;;;;;;;16.20;12.32;;;18.70;99.90;;;;;;4990942;28;20516;-51
2023/09/07 04:32:58;;;;;;;16.20;11.70;;;18.80;99.90;;;;;;5024939;28;20065;-50
2023/09/07 04:35:30;;;;;;;18.08;13.43;;;18.70;99.90;;;;;;5024756;28;20068;-51
2023/09/07 04:37:56;;;;;;;14.10;12.68;;;18.70;99.90;;;;;;5006183;28;20041;-51
2023/09/07 04:40:23;;;;;;;14.05;11.90;;;18.80;99.90;;;;;;5024496;28;20037;-51
2023/09/07 04:42:49;;;;;;;15.85;12.25;;;18.80;99.90;;;;;;5024339;28;20836;-51
2023/09/07 04:45:15;;;;;;;13.98;12.38;;;19.00;99.90;;;;;;5024932;28;20120;-51
2023/09/07 04:47:40;;;;;;;16.92;12.98;;;19.00;99.90;;;;;;5005871;28;20065;-51
2023/09/07 04:50:07;;;;;;;15.45;12.48;;;19.00;99.90;;;;;;5024720;28;20530;-51
2023/09/07 04:52:34;;;;;;;19.13;12.85;;;19.00;99.90;;;;;;5038592;28;20033;-52
2023/09/07 04:55:00;;;;;;;17.60;12.82;;;18.90;99.90;;;;;;5024601;28;20029;-51
2023/09/07 04:57:26;;;;;;;18.27;13.00;;;18.90;99.90;;;;;;5025157;28;20038;-51
2023/09/07 04:59:52;;;;;;;14.65;12.43;;;18.80;99.90;;;;;;5024845;28;20033;-51
2023/09/07 05:02:18;;;;;;;15.73;11.68;;;18.90;99.90;;;;;;5024435;28;20112;-51
2023/09/07 05:04:44;;;;;;;18.52;12.85;;;18.90;99.90;;;;;;5024550;28;20042;-51
2023/09/07 05:07:10;;;;;;;13.95;12.50;;;18.90;99.90;;;;;;5024030;28;20095;-51
2023/09/07 05:09:36;;;;;;;19.23;12.70;;;18.90;99.90;;;;;;5023803;28;20550;-51
2023/09/07 05:12:02;;;;;;;17.65;12.63;;;19.00;99.90;;;;;;5038564;28;20116;-51
2023/09/07 05:14:29;;;;;;;14.93;13.00;;;19.00;99.90;;;;;;5028521;28;20052;-51
2023/09/07 05:16:56;;;;;;;16.88;13.35;;;19.10;99.90;;;;;;5006364;28;20052;-51
2023/09/07 05:19:22;;;;;;;15.50;13.60;;;19.10;99.90;;;;;;5023252;28;20036;-51
2023/09/07 05:21:48;;;;;;;19.98;13.68;;;19.00;99.90;;;;;;5023981;28;20031;-51
2023/09/07 05:24:15;;;;;;;15.85;14.25;;;18.80;99.90;;;;;;5024214;28;20408;-51
2023/09/07 05:26:42;;;;;;;16.05;12.88;;;;;;;;;;5024111;28;20065;-51
2023/09/07 05:29:08;;;;;;;16.70;13.75;;;18.60;99.90;;;;;;5024518;28;20079;-51
2023/09/07 05:31:35;;;;;;;16.10;12.20;;;18.80;99.90;;;;;;5026083;28;20065;-51
2023/09/07 05:34:00;;;;;;;16.48;12.77;;;18.50;99.90;;;;;;5022980;28;20034;-51
2023/09/07 05:36:27;;;;;;;17.02;12.57;;;18.60;99.90;;;;;;5022362;28;20084;-51
2023/09/07 05:38:53;;;;;;;14.27;12.07;;;18.80;99.90;;;;;;5021492;28;20450;-51
2023/09/07 05:41:19;;;;;;;14.50;12.32;;;18.80;99.90;;;;;;5022188;28;20134;-52
2023/09/07 05:43:44;;;;;;;15.60;12.88;;;19.00;99.90;;;;;;5022480;28;20489;-51
2023/09/07 05:46:10;;;;;;;16.70;12.10;;;19.30;99.90;;;;;;5022932;28;20083;-51
2023/09/07 05:48:36;;;;;;;15.48;12.27;;;19.50;99.90;;;;;;5021398;28;20033;-52
2023/09/07 05:51:02;;;;;;;14.75;11.57;;;19.70;99.90;;;;;;5022655;28;20026;-51
2023/09/07 05:53:27;;;;;;;17.98;12.00;;;19.80;99.90;;;;;;5022194;28;20529;-51
2023/09/07 05:55:53;;;;;;;16.40;11.77;;;20.00;99.90;;;;;;5003386;28;20046;-51
2023/09/07 05:58:19;;;;;;;14.27;11.68;;;20.10;99.90;;;;;;5036245;28;20481;-51
2023/09/07 06:00:45;;;;;;;17.55;11.35;;;20.30;99.90;;;;;;5022605;28;20033;-51
2023/09/07 06:03:11;;;;;;;13.68;11.40;;;20.60;99.90;;;;;;5022594;28;20029;-51
2023/09/07 06:05:38;;;;;;;16.90;11.85;;;;;;;;;;5020340;28;20143;-51
2023/09/07 06:08:06;;;;;;;17.98;12.02;;;;;;;;;;5022553;28;20132;-52
2023/09/07 06:10:32;;;;;;;16.15;12.13;;;;;;;;;;5022238;28;20398;-51
2023/09/07 06:12:58;;;;;;;13.10;11.50;;;;;;;;;;5021814;28;20127;-52
2023/09/07 06:15:24;;;;;;;19.70;12.43;;;21.20;99.90;;;;;;5021787;28;20026;-52
2023/09/07 06:17:50;;;;;;;18.95;12.75;;;;;;;;;;5021607;28;20156;-51
2023/09/07 06:20:17;;;;;;;13.93;11.82;;;21.40;99.90;;;;;;5021906;28;20037;-51
2023/09/07 06:22:45;;;;;;;22.52;12.38;;;;;;;;;;5022042;28;20033;-51
2023/09/07 06:25:10;;;;;;;14.25;12.45;;;21.50;99.90;;;;;;5021770;28;20043;-51
2023/09/07 06:27:36;;;;;;;18.00;13.45;;;21.80;99.90;;;;;;5021233;28;20045;-51
2023/09/07 06:30:02;;;;;;;15.45;12.77;;;21.90;99.90;;;;;;5021771;28;20026;-52
2023/09/07 06:32:28;;;;;;;18.33;13.45;;;22.10;99.90;;;;;;5021384;28;20116;-51
2023/09/07 06:34:54;;;;;;;19.05;13.13;;;22.20;99.90;;;;;;5022296;28;20054;-51
2023/09/07 06:37:19;;;;;;;18.55;12.80;;;22.40;99.90;;;;;;5004037;28;20036;-51
2023/09/07 06:39:46;;;;;;;20.42;13.05;;;;;;;;;;5022484;28;20028;-51
2023/09/07 06:42:11;;;;;;;15.00;12.80;;;22.70;99.90;;;;;;5023002;28;20017;-51
2023/09/07 06:44:37;;;;;;;16.90;13.20;;;22.80;99.90;;;;;;5022675;28;20478;-52
2023/09/07 06:47:03;;;;;;;16.13;12.55;;;22.90;99.90;;;;;;5020815;28;20026;-52
2023/09/07 06:49:29;;;;;;;19.45;14.02;;;23.00;99.90;;;;;;5022675;28;20366;-51
2023/09/07 06:51:56;;;;;;;19.25;14.82;;;22.70;99.90;;;;;;5023051;28;20037;-51
2023/09/07 06:54:22;;;;;;;29.13;20.98;;;22.90;99.90;;;;;;5022882;28;20042;-51
2023/09/07 06:56:48;;;;;;;26.38;19.50;;;23.00;99.90;;;;;;5022629;28;20025;-52
2023/09/07 06:59:14;;;;;;;19.55;15.00;;;;;;;;;;5022118;28;20018;-51
2023/09/07 07:01:41;;;;;;;20.35;14.02;;;;;;;;;;5022012;28;20247;-51
2023/09/07 07:04:08;;;;;;;15.43;12.77;;;23.20;99.90;;;;;;5022199;28;20025;-51
2023/09/07 07:06:34;;;;;;;16.65;13.25;;;23.40;99.90;;;;;;5022214;28;20071;-52
2023/09/07 07:08:59;;;;;;;14.25;12.40;;;23.50;99.90;;;;;;5003903;28;20451;-51
2023/09/07 07:11:25;;;;;;;14.10;12.55;;;23.50;99.90;;;;;;4993762;28;20034;-50
2023/09/07 07:13:51;;;;;;;15.38;12.13;;;23.70;99.90;;;;;;5021270;28;20030;-51
2023/09/07 07:16:17;;;;;;;19.88;12.48;;;23.80;99.90;;;;;;5036420;28;20033;-51
2023/09/07 07:18:43;;;;;;;21.27;10.57;;;24.00;99.90;;;;;;5037363;28;20113;-51
2023/09/07 07:21:09;;;;;;;15.98;10.40;;;;;;;;;;5003346;28;20118;-51
2023/09/07 07:23:36;;;;;;;12.07;10.75;;;;;;;;;;5002950;28;20120;-51
2023/09/07 07:26:02;;;;;;;13.52;10.23;;;;;;;;;;5021949;28;20096;-51
2023/09/07 07:28:28;;;;;;;12.35;9.82;;;;;;;;;;5021887;28;20032;-50
2023/09/07 07:30:54;;;;;;;15.38;10.07;;;;;;;;;;5021829;28;20029;-51
2023/09/07 07:33:21;;;;;;;12.07;10.25;;;;;;;;;;5021550;28;20057;-51
2023/09/07 07:35:46;;;;;;;12.40;9.52;;;25.00;99.90;;;;;;5021941;28;20018;-51
2023/09/07 07:38:13;;;;;;;12.57;9.98;;;25.10;99.90;;;;;;5022261;28;20497;-51
2023/09/07 07:40:40;;;;;;;13.10;9.13;;;25.00;99.90;;;;;;5021512;28;20029;-51
2023/09/07 07:43:06;;;;;;;18.23;8.27;;;25.10;99.90;;;;;;5022275;28;20056;-51
2023/09/07 07:45:36;;;;;;;11.07;9.10;;;;;;;;;;5021125;28;20489;-50
2023/09/07 07:48:05;;;;;;;8.85;7.95;;;;;;;;;;5021685;28;20477;-50
2023/09/07 07:50:31;;;;;;;7.95;7.15;;;25.90;99.90;;;;;;5020158;28;20029;-50
2023/09/07 07:52:57;;;;;;;11.82;6.85;;;;;;;;;;5022215;28;20029;-51
2023/09/07 07:55:23;;;;;;;13.60;6.97;;;;;;;;;;4987641;28;20038;-51
2023/09/07 07:57:49;;;;;;;11.25;6.80;;;26.10;99.90;;;;;;5021885;28;20041;-51
2023/09/07 08:00:15;;;;;;;13.07;7.03;;;;;;;;;;5021909;28;20018;-51
2023/09/07 08:02:41;;;;;;;11.10;6.68;;;;;;;;;;5025080;28;20026;-51
2023/09/07 08:05:07;;;;;;;9.57;6.40;;;26.70;99.90;;;;;;5025029;28;20033;-51
2023/09/07 08:07:33;;;;;;;7.47;6.00;;;26.50;99.90;;;;;;5025311;28;20044;-51
2023/09/07 08:09:58;;;;;;;9.88;6.70;;;26.50;99.90;;;;;;5015298;28;20497;-51
2023/09/07 08:12:24;;;;;;;7.43;6.22;;;26.40;99.90;;;;;;5023652;28;20069;-51
2023/09/07 08:14:50;;;;;;;7.47;5.97;;;27.10;99.90;;;;;;4998015;28;20486;-51
2023/09/07 08:17:16;;;;;;;7.80;5.75;;;27.10;99.90;;;;;;5025524;28;20466;-50
2023/09/07 08:19:43;;;;;;;9.18;6.28;;;26.90;99.90;;;;;;5024938;28;20029;-51
2023/09/07 08:22:09;;;;;;;9.98;5.93;;;26.80;99.90;;;;;;5006403;28;20042;-50
2023/09/07 08:24:36;;;;;;;8.43;6.47;;;;;;;;;;5024824;28;20037;-51
2023/09/07 08:27:01;;;;;;;12.35;6.57;;;27.50;99.90;;;;;;5024834;28;20111;-51
2023/09/07 08:29:27;;;;;;;7.85;6.15;;;27.50;99.90;;;;;;5023353;28;20042;-51
2023/09/07 08:31:53;;;;;;;8.65;6.13;;;27.40;99.90;;;;;;5025639;28;20026;-51
2023/09/07 08:34:21;;;;;;;8.25;5.97;;;;;;;;;;5024342;28;20080;-51
2023/09/07 08:36:49;;;;;;;7.85;5.60;;;;;;;;;;5025215;28;20109;-51
2023/09/07 08:39:16;;;;;;;7.22;5.50;;;28.50;99.90;;;;;;5024759;28;20030;-51
2023/09/07 08:41:43;;;;;;;8.15;5.57;;;28.50;99.90;;;;;;5024541;28;20076;-50
2023/09/07 08:44:14;;;;;;;14.13;6.47;;;;;;;;;;5024389;28;20040;-51
2023/09/07 08:46:41;;;;;;;7.68;6.35;;;;;;;;;;5024846;28;20402;-50
2023/09/07 08:49:08;;;;;;;8.15;5.25;;;;;;;;;;5024312;28;20111;-51
2023/09/07 08:51:37;;;;;;;8.45;5.20;;;29.40;98.30;;;;;;5024444;28;20374;-51
2023/09/07 08:54:03;;;;;;;8.57;4.93;;;;;;;;;;5024761;28;20036;-51
2023/09/07 08:56:29;;;;;;;5.25;3.80;;;;;;;;;;5025303;28;20124;-51
2023/09/07 08:58:55;;;;;;;6.60;3.75;;;30.20;99.90;;;;;;5022482;28;20417;-51
2023/09/07 09:01:21;;;;;;;4.97;3.60;;;30.00;97.10;;;;;;5022411;28;20038;-51
2023/09/07 09:03:48;;;;;;;8.52;4.05;;;29.60;97.00;;;;;;4981638;28;20044;-50
2023/09/07 09:06:16;;;;;;;6.07;3.83;;;29.70;97.10;;;;;;5021885;28;20088;-50
2023/09/07 09:09:05;;;;;;;9.00;3.97;;;29.80;99.90;;;;;;5021379;28;20050;-51
2023/09/07 09:11:31;;;;;;;6.35;4.55;;;;;;;;;;5022386;28;20037;-50
2023/09/07 09:13:57;;;;;;;8.10;3.95;;;;;;;;;;5022360;28;20029;-51
2023/09/07 09:16:23;;;;;;;5.43;4.07;;;;;;;;;;5022326;28;20022;-50
2023/09/07 09:18:52;;;;;;;7.38;4.57;;;;;;;;;;5021939;28;20038;-51
2023/09/07 09:21:27;;;;;;;6.07;4.10;;;31.50;99.90;;;;;;5022104;28;20109;-51
2023/09/07 09:23:56;;;;;;;7.00;4.50;;;30.70;96.70;;;;;;5022106;28;20540;-51
2023/09/07 09:26:23;;;;;;;7.28;3.95;;;30.90;96.80;;;;;;5021599;28;20521;-51
2023/09/07 09:28:52;;;;;;;6.32;4.20;;;;;;;;;;5021991;28;20042;-50
2023/09/07 09:31:19;;;;;;;8.32;4.38;;;;;;;;;;5024158;28;20474;-50
2023/09/07 09:33:51;;;;;;;8.88;4.43;;;31.40;99.90;;;;;;5023873;28;20088;-51
2023/09/07 09:36:17;;;;;;;6.63;4.18;;;;;;;;;;5024028;28;20025;-51
2023/09/07 09:38:53;;;;;;;6.13;4.20;;;31.60;99.90;;;;;;5023621;28;20025;-51
2023/09/07 09:41:20;;;;;;;8.80;4.00;;;30.90;96.70;;;;;;5024210;28;20030;-51
2023/09/07 09:43:51;;;;;;;5.47;3.90;;;31.30;99.90;;;;;;5024104;28;20105;-51
2023/09/07 09:46:18;;;;;;;6.72;3.70;;;;;;;;;;5025264;28;20042;-51
2023/09/07 09:48:44;;;;;;;6.53;3.60;;;;;;;;;;5024497;28;20025;-51
2023/09/07 09:51:13;;;;;;;8.98;4.10;;;31.50;99.90;;;;;;5023872;28;20385;-51
2023/09/07 09:53:39;;;;;;;5.20;3.60;;;31.40;94.50;;;;;;5023620;28;20034;-50
2023/09/07 09:56:05;;;;;;;6.13;3.65;;;31.60;94.30;;;;;;5023781;28;20108;-51
2023/09/07 09:58:33;;;;;;;8.55;3.92;;;31.50;94.70;;;;;;5023332;28;20351;-51
2023/09/07 10:01:01;;;;;;;8.30;3.92;;;;;;;;;;5023594;28;20033;-51
2023/09/07 10:03:34;;;;;;;6.03;3.95;;;;;;;;;;5022549;28;20029;-51
2023/09/07 10:06:09;;;;;;;6.55;3.72;;;;;;;;;;5022906;28;20033;-51
2023/09/07 10:08:35;;;;;;;5.68;4.03;;;31.80;96.20;;;;;;5023736;28;20092;-51
2023/09/07 10:11:11;;;;;;;5.57;3.97;;;32.00;93.90;;;;;;5023268;28;20018;-51
2023/09/07 10:13:37;;;;;;;5.88;3.88;;;31.90;94.10;;;;;;5023494;28;20058;-51
2023/09/07 10:16:07;;;;;;;8.23;3.85;;;32.40;93.50;;;;;;5021410;28;20053;-51
2023/09/07 10:18:39;;;;;;;5.80;4.20;;;31.90;93.90;;;;;;5023208;28;20500;-51
2023/09/07 10:21:06;;;;;;;5.70;3.30;;;32.40;94.10;;;;;;5023340;28;20034;-51
2023/09/07 10:23:42;;;;;;;6.07;4.22;;;32.30;93.50;;;;;;5022359;28;20029;-51
2023/09/07 10:26:12;;;;;;;5.25;4.20;;;32.10;93.90;;;;;;5023188;28;21491;-50
2023/09/07 10:28:38;;;;;;;5.55;4.15;;;32.10;93.90;;;;;;5022411;28;20033;-50
2023/09/07 10:31:05;;;;;;;9.30;4.00;;;31.70;93.80;;;;;;5022421;28;20033;-51
2023/09/07 10:33:34;;;;;;;6.50;4.50;;;31.50;93.90;;;;;;5022964;28;20014;-50
2023/09/07 10:36:01;;;;;;;5.97;4.43;;;31.60;93.90;;;;;;5022304;28;20116;-51
2023/09/07 10:38:27;;;;;;;8.00;4.20;;;32.00;94.40;;;;;;5022252;28;20033;-50
2023/09/07 10:41:01;;;;;;;10.00;4.28;;;32.30;99.90;;;;;;5022238;28;21342;-51
2023/09/07 10:43:32;;;;;;;8.70;4.28;;;32.00;94.00;;;;;;5022592;28;20026;-50
2023/09/07 10:46:00;;;;;;;7.03;4.38;;;32.60;94.00;;;;;;5022435;28;20030;-50
2023/09/07 10:48:29;;;;;;;9.77;5.03;;;32.60;95.60;;;;;;4961252;28;20149;-50
2023/09/07 10:50:56;;;;;;;6.38;4.28;;;;;;;;;;4971507;28;20039;-51
2023/09/07 10:53:27;;;;;;;9.60;4.60;;;32.50;99.90;;;;;;4971395;28;20042;-51
2023/09/07 10:55:55;;;;;;;11.05;4.82;;;32.30;99.90;;;;;;4971472;28;20031;-50
2023/09/07 10:58:26;;;;;;;8.93;4.65;;;32.20;99.90;;;;;;4970895;28;20030;-51
2023/09/07 11:00:55;;;;;;;10.80;5.50;;;32.50;95.20;;;;;;4971441;28;20487;-50
2023/09/07 11:03:22;;;;;;;7.75;4.60;;;31.90;94.50;;;;;;4971110;28;20029;-50
2023/09/07 11:05:48;;;;;;;6.25;4.15;;;;;;;;;;4971291;28;20038;-53
2023/09/07 11:08:14;;;;;;;9.00;4.60;;;31.80;99.40;;;;;;4969344;28;20630;-50
2023/09/07 11:10:41;;;;;;;11.57;5.05;;;31.90;99.80;;;;;;4971157;28;20113;-50
2023/09/07 11:13:07;;;;;;;7.93;6.10;;;32.20;99.90;;;;;;4941638;29;20071;-51
2023/09/07 11:15:36;;;;;;;5.72;4.85;;;31.90;99.90;;;;;;4942063;29;20055;-50
2023/09/07 11:18:09;;;;;;;8.18;5.35;;;32.10;99.90;;;;;;4929316;29;20078;-50
2023/09/07 11:20:40;;;;;;;10.10;4.20;;;;;;;;;;4959957;28;20069;-51
2023/09/07 11:23:07;;;;;;;7.97;4.10;;;33.20;96.80;;;;;;4999917;28;20022;-50
2023/09/07 11:25:39;;;;;;;6.90;4.13;;;33.30;99.90;;;;;;5000281;28;20038;-51
2023/09/07 11:28:06;;;;;;;6.22;4.18;;;;;;;;;;4990212;28;20050;-50
2023/09/07 11:30:35;;;;;;;6.85;4.13;;;;;;;;;;5000303;28;20091;-51
2023/09/07 11:33:02;;;;;;;6.72;3.85;;;;;;;;;;5000388;28;20026;-51
2023/09/07 11:35:28;;;;;;;6.85;3.88;;;;;;;;;;5000692;28;20037;-51
2023/09/07 11:37:54;;;;;;;8.05;3.85;;;;;;;;;;5004488;28;20086;-51
2023/09/07 11:40:20;;;;;;;6.15;3.85;;;;;;;;;;5004163;28;20033;-51
2023/09/07 11:42:46;;;;;;;6.20;3.75;;;33.30;99.90;;;;;;5003303;28;20038;-51
2023/09/07 11:45:13;;;;;;;6.82;3.72;;;;;;;;;;5003534;28;20038;-51
2023/09/07 11:47:39;;;;;;;6.63;3.80;;;33.40;91.80;;;;;;4971447;28;20044;-51
2023/09/07 11:50:09;;;;;;;4.13;3.28;;;33.30;91.70;;;;;;4997091;28;20041;-51
2023/09/07 11:52:34;;;;;;;5.57;3.33;;;33.20;91.40;;;;;;5025588;28;20243;-51
2023/09/07 11:55:01;;;;;;;5.22;3.50;;;32.40;91.00;;;;;;5023412;28;20034;-50
2023/09/07 11:57:27;;;;;;;4.32;2.70;;;32.90;91.30;;;;;;5025334;28;20061;-52
2023/09/07 11:59:53;;;;;;;5.72;3.63;;;32.40;94.80;;;;;;5025425;28;20060;-52
2023/09/07 12:02:21;;;;;;;4.88;3.53;;;;;;;;;;4991059;28;20029;-50
2023/09/07 12:04:48;;;;;;;4.50;3.20;;;32.70;99.90;;;;;;5025314;28;20477;-50
2023/09/07 12:07:14;;;;;;;4.38;3.38;;;32.00;99.90;;;;;;5013020;28;20121;-51
2023/09/07 12:09:40;;;;;;;6.70;3.85;;;32.50;99.90;;;;;;4998314;28;20034;-50
2023/09/07 12:12:06;;;;;;;6.25;3.78;;;32.10;99.90;;;;;;5014863;28;20083;-50
2023/09/07 12:14:32;;;;;;;6.07;3.45;;;32.40;99.90;;;;;;5014777;28;20021;-51
2023/09/07 12:16:58;;;;;;;6.95;3.80;;;32.20;99.90;;;;;;5014716;28;20470;-50
2023/09/07 12:19:24;;;;;;;4.80;3.45;;;;;;;;;;5014919;28;20037;-50
2023/09/07 12:21:52;;;;;;;6.50;3.40;;;;;;;;;;4982284;28;20045;-50
2023/09/07 12:24:17;;;;;;;6.28;3.83;;;33.00;99.90;;;;;;5014492;28;20038;-50
2023/09/07 12:26:43;;;;;;;5.05;3.30;;;33.40;91.70;;;;;;5014423;28;20061;-50
2023/09/07 12:29:09;;;;;;;6.32;2.92;;;33.10;90.60;;;;;;4982106;28;20041;-51
2023/09/07 12:31:35;;;;;;;5.63;3.28;;;32.90;90.60;;;;;;5014463;28;20121;-51
2023/09/07 12:34:00;;;;;;;6.72;3.47;;;33.10;90.70;;;;;;4982009;28;20046;-50
2023/09/07 12:36:29;;;;;;;6.00;3.50;;;33.20;90.60;;;;;;4981909;28;20089;-50
2023/09/07 12:39:01;;;;;;;7.03;4.13;;;33.20;90.60;;;;;;5015920;28;20117;-50
2023/09/07 12:41:28;;;;;;;5.75;3.47;;;33.00;90.30;;;;;;5016956;28;20034;-50
2023/09/07 12:43:54;;;;;;;8.35;3.40;;;32.80;90.40;;;;;;5016662;28;20131;-50
2023/09/07 12:46:20;;;;;;;4.97;3.40;;;;;;;;;;5015900;28;20069;-50
2023/09/07 12:48:46;;;;;;;7.60;4.40;;;;;;;;;;5016570;28;20025;-50
2023/09/07 12:51:12;;;;;;;5.90;3.70;;;33.40;99.90;;;;;;5016564;28;20112;-50
2023/09/07 12:53:38;;;;;;;7.53;3.47;;;33.30;90.60;;;;;;4981728;28;20456;-51
2023/09/07 12:56:04;;;;;;;4.88;3.42;;;32.90;90.40;;;;;;4982008;28;20029;-50
2023/09/07 12:58:29;;;;;;;5.05;3.65;;;32.60;90.50;;;;;;5016064;28;20057;-50
2023/09/07 13:00:55;;;;;;;7.32;3.58;;;32.90;90.50;;;;;;4993775;28;20077;-51
2023/09/07 13:03:21;;;;;;;5.63;3.47;;;33.10;90.30;;;;;;5016418;28;20109;-50